Pagina principale
METAR-TAF:

METAR-TAF

Aeroporti :

Praia, Capo Verde

latitudine: 14-55-27N, longitudine: 23-29-38W, altezza: 70 m

Osservazione

Il bollettino è stato emesso 57 minuti fa, alle 20:00 UTC
Vento 11 kt da nord/nord-est
Temperature 23°C
Umidità 69%
Pressione 1013 hPa
Visibilità 10 km o più
nessuna nube inferiore a 1500 m e nessun cumulonembo

METAR: GVNP 222000Z 03011KT CAVOK 23/17 Q1013 NOSIG

Ora: 19:57 (20:57 UTC)

Previsione

Il bollettino è stato emesso 3 ore e 57 minuti fa, alle 17:00 UTC
Previsione valida dal 22 alle 18 UTC al 23 alle 24 UTC
Vento 12 kt da nord-est
Visibilità 10 km o più
nessuna nube inferiore a 1500 m e nessun cumulonembo

TAF: GVNP 221700Z 2218/2324 04012KT CAVOK

Osservazioni e previsioni meteorologiche di più di 4000 aeroporti (messaggi METAR e TAF).

Le stazioni disponibili sono rappresentate dai dischi gialli e rossi sulla carta.

Puntare il mouse per vedere il nome della stazione.

Clicca sopra per visualizzare le osservazioni e previsioni meteorologiche.

Per cambiare la mappa : fare clic sui pulsanti verdi con una croce nera per ingrandire, il pulsante verde con un trattino per diminuire, o sulla freccia verde per le mappe adiacenti.


METAR-TAF: